createdAt,value
2018-03-14T00:00:01.630Z,101059.75
2018-03-14T00:02:27.849Z,101053.51
2018-03-14T00:04:54.086Z,101046.91
2018-03-14T00:07:20.267Z,101046.81
2018-03-14T00:09:46.461Z,101051.97
2018-03-14T00:12:12.624Z,101056.70
2018-03-14T00:14:38.876Z,101055.83
2018-03-14T00:17:05.016Z,101050.16
2018-03-14T00:19:31.177Z,101048.44
2018-03-14T00:21:57.385Z,101045.39
2018-03-14T00:24:23.656Z,101043.21
2018-03-14T00:26:50.791Z,101044.04
2018-03-14T00:29:17.000Z,101044.03
2018-03-14T00:31:43.797Z,101045.73
2018-03-14T00:34:10.002Z,101044.41
2018-03-14T00:36:36.192Z,101038.71
2018-03-14T00:39:02.519Z,101033.09
2018-03-14T00:41:28.677Z,101033.08
2018-03-14T00:43:54.892Z,101031.29
2018-03-14T00:46:21.077Z,101029.98
2018-03-14T00:48:47.230Z,101032.62
2018-03-14T00:51:13.427Z,101038.33
2018-03-14T00:53:39.634Z,101036.23
2018-03-14T00:56:05.803Z,101037.16
2018-03-14T00:58:32.060Z,101045.06
2018-03-14T01:00:58.238Z,101042.93
2018-03-14T01:03:24.416Z,101045.63
2018-03-14T01:05:50.647Z,101051.77
2018-03-14T01:08:16.800Z,101047.95
2018-03-14T01:10:42.993Z,101042.88
2018-03-14T01:13:09.196Z,101039.95
2018-03-14T01:15:35.397Z,101033.99
2018-03-14T01:18:01.608Z,101035.89
2018-03-14T01:20:27.774Z,101039.50
2018-03-14T01:22:53.931Z,101034.77
2018-03-14T01:25:20.156Z,101033.52
2018-03-14T01:27:46.388Z,101038.77
2018-03-14T01:30:12.553Z,101034.87
2018-03-14T01:32:38.750Z,101034.93
2018-03-14T01:35:05.004Z,101029.70
2018-03-14T01:37:31.170Z,101029.59
2018-03-14T01:39:57.347Z,101018.13
2018-03-14T01:42:23.545Z,101017.08
2018-03-14T01:44:49.745Z,101018.73
2018-03-14T01:47:15.983Z,101028.18
2018-03-14T01:49:42.135Z,101021.11
2018-03-14T01:52:08.293Z,101025.29
2018-03-14T01:54:34.517Z,101023.41
2018-03-14T01:57:00.727Z,101022.40
2018-03-14T01:59:26.884Z,101016.64
2018-03-14T02:01:53.070Z,101015.63
2018-03-14T02:04:19.275Z,101011.64
2018-03-14T02:06:45.419Z,101013.71
2018-03-14T02:09:11.595Z,100999.72
2018-03-14T02:11:37.808Z,101005.73
2018-03-14T02:14:04.053Z,101000.05
2018-03-14T02:16:30.206Z,100999.13
2018-03-14T02:18:56.461Z,101000.78
2018-03-14T02:21:22.605Z,101010.31
2018-03-14T02:23:48.773Z,101008.98
2018-03-14T02:26:14.995Z,101010.30
2018-03-14T02:28:41.193Z,101009.50
2018-03-14T02:31:07.337Z,101006.82
2018-03-14T02:33:33.536Z,101000.75
2018-03-14T02:35:59.785Z,101002.44
2018-03-14T02:38:25.923Z,101003.28
2018-03-14T02:40:52.149Z,101003.20
2018-03-14T02:43:18.315Z,101000.51
2018-03-14T02:45:44.532Z,101000.51
2018-03-14T02:48:10.690Z,100992.67
2018-03-14T02:50:36.837Z,100997.91
2018-03-14T02:53:03.029Z,100992.67
2018-03-14T02:55:29.210Z,100988.72
2018-03-14T02:57:55.360Z,100987.88
2018-03-14T03:00:21.536Z,100993.55
2018-03-14T03:02:47.650Z,100995.23
2018-03-14T03:05:13.820Z,100989.96
2018-03-14T03:07:40.008Z,100992.54
2018-03-14T03:10:06.146Z,100992.95
2018-03-14T03:12:32.275Z,100989.89
2018-03-14T03:14:58.587Z,100993.30
2018-03-14T03:17:24.780Z,100992.85
2018-03-14T03:19:50.912Z,100987.16
2018-03-14T03:22:17.117Z,100986.28
2018-03-14T03:24:43.342Z,100986.23
2018-03-14T03:27:09.473Z,100986.63
2018-03-14T03:29:35.593Z,100984.90
2018-03-14T03:32:01.758Z,100981.36
2018-03-14T03:34:28.003Z,100976.56
2018-03-14T03:36:54.196Z,100971.36
2018-03-14T03:39:20.374Z,100980.89
2018-03-14T03:41:46.508Z,100973.53
2018-03-14T03:44:12.658Z,100974.02
2018-03-14T03:46:38.936Z,100965.80
2018-03-14T03:49:05.182Z,100964.98
2018-03-14T03:51:31.317Z,100959.37
2018-03-14T03:53:57.497Z,100956.26
2018-03-14T03:56:23.672Z,100957.07
2018-03-14T03:58:49.824Z,100956.61
2018-03-14T04:01:15.961Z,100957.86
2018-03-14T04:03:49.094Z,100956.55
2018-03-14T04:06:15.237Z,100963.03
2018-03-14T04:08:41.401Z,100963.02
2018-03-14T04:11:07.574Z,100963.73
2018-03-14T04:13:33.726Z,100957.23
2018-03-14T04:15:59.988Z,100965.03
2018-03-14T04:18:26.190Z,100964.59
2018-03-14T04:20:52.695Z,100955.97
2018-03-14T04:23:18.871Z,100952.52
2018-03-14T04:25:45.047Z,100949.02
2018-03-14T04:28:11.217Z,100954.61
2018-03-14T04:30:37.385Z,100947.61
2018-03-14T04:33:03.536Z,100951.89
2018-03-14T04:35:29.750Z,100949.65
2018-03-14T04:37:55.965Z,100947.42
2018-03-14T04:40:22.199Z,100947.45
2018-03-14T04:42:48.339Z,100945.27
2018-03-14T04:45:14.557Z,100949.58
2018-03-14T04:47:40.733Z,100947.34
2018-03-14T04:50:06.878Z,100949.13
2018-03-14T04:52:33.049Z,100951.70
2018-03-14T04:54:59.255Z,100942.99
2018-03-14T04:57:25.438Z,100947.70
2018-03-14T04:59:51.584Z,100940.78
2018-03-14T05:02:17.817Z,100942.08
2018-03-14T05:04:43.986Z,100932.97
2018-03-14T05:07:10.141Z,100932.16
2018-03-14T05:09:36.321Z,100937.78
2018-03-14T05:12:02.481Z,100936.09
2018-03-14T05:14:28.651Z,100926.95
2018-03-14T05:16:55.021Z,100927.86
2018-03-14T05:19:21.247Z,100926.17
2018-03-14T05:21:47.443Z,100917.12
2018-03-14T05:24:13.656Z,100927.59
2018-03-14T05:26:39.921Z,100926.75
2018-03-14T05:29:06.069Z,100914.26
2018-03-14T05:31:32.202Z,100914.73
2018-03-14T05:33:58.431Z,100917.28
2018-03-14T05:36:24.616Z,100913.82
2018-03-14T05:38:50.768Z,100918.70
2018-03-14T05:41:16.992Z,100920.42
2018-03-14T05:43:43.209Z,100924.81
2018-03-14T05:46:09.413Z,100930.48
2018-03-14T05:48:35.625Z,100921.88
2018-03-14T05:51:01.740Z,100929.75
2018-03-14T05:53:27.894Z,100917.64
2018-03-14T05:55:54.162Z,100928.54
2018-03-14T05:58:20.327Z,100929.02
2018-03-14T06:00:46.493Z,100925.59
2018-03-14T06:03:12.759Z,100926.83
2018-03-14T06:05:38.964Z,100924.72
2018-03-14T06:08:05.131Z,100923.81
2018-03-14T06:10:31.268Z,100927.25
2018-03-14T06:12:57.470Z,100925.93
2018-03-14T06:15:23.794Z,100915.12
2018-03-14T06:17:50.008Z,100913.21
2018-03-14T06:20:16.162Z,100919.23
2018-03-14T06:22:42.318Z,100920.91
2018-03-14T06:25:08.560Z,100915.23
2018-03-14T06:27:34.717Z,100909.19
2018-03-14T06:30:00.898Z,100908.33
2018-03-14T06:32:27.079Z,100896.11
2018-03-14T06:34:53.241Z,100903.02
2018-03-14T06:37:19.478Z,100907.31
2018-03-14T06:39:45.626Z,100903.92
2018-03-14T06:42:11.761Z,100893.00
2018-03-14T06:44:37.947Z,100897.80
2018-03-14T06:47:04.164Z,100904.77
2018-03-14T06:49:30.368Z,100912.57
2018-03-14T06:51:56.592Z,100911.70
2018-03-14T06:54:22.738Z,100907.78
2018-03-14T06:56:48.969Z,100916.53
2018-03-14T06:59:27.299Z,100915.61
2018-03-14T07:02:05.609Z,100920.58
2018-03-14T07:04:37.959Z,100911.97
2018-03-14T07:07:04.121Z,100906.34
2018-03-14T07:09:30.266Z,100912.06
2018-03-14T07:11:56.510Z,100920.39
2018-03-14T07:14:22.772Z,100919.14
2018-03-14T07:16:48.959Z,100924.45
2018-03-14T07:19:15.179Z,100927.98
2018-03-14T07:21:41.309Z,100931.56
2018-03-14T07:24:07.471Z,100929.48
2018-03-14T07:26:33.745Z,100928.72
2018-03-14T07:28:59.900Z,100923.09
2018-03-14T07:31:26.019Z,100925.86
2018-03-14T07:33:52.184Z,100925.48
2018-03-14T07:36:18.370Z,100924.68
2018-03-14T07:38:44.540Z,100923.40
2018-03-14T07:41:10.732Z,100928.25
2018-03-14T07:43:36.898Z,100920.50
2018-03-14T07:46:03.191Z,100915.86
2018-03-14T07:48:29.409Z,100915.56
2018-03-14T07:50:55.587Z,100917.92
2018-03-14T07:53:21.743Z,100917.72
2018-03-14T07:55:47.995Z,100913.29
2018-03-14T07:58:14.193Z,100907.87
2018-03-14T08:00:40.317Z,100914.14
2018-03-14T08:03:06.508Z,100910.83
2018-03-14T08:05:32.710Z,100906.23
2018-03-14T08:07:58.859Z,100903.38
2018-03-14T08:10:25.038Z,100897.38
2018-03-14T08:12:51.183Z,100898.42
2018-03-14T08:15:17.333Z,100899.42
2018-03-14T08:17:43.603Z,100898.70
2018-03-14T08:20:09.740Z,100894.95
2018-03-14T08:22:35.927Z,100889.03
2018-03-14T08:25:02.167Z,100890.54
2018-03-14T08:27:28.597Z,100891.20
2018-03-14T08:29:54.725Z,100893.48
2018-03-14T08:32:20.862Z,100884.56
2018-03-14T08:34:47.075Z,100879.93
2018-03-14T08:37:13.367Z,100887.65
2018-03-14T08:39:39.487Z,100878.27
2018-03-14T08:42:05.659Z,100874.08
2018-03-14T08:44:31.846Z,100867.40
2018-03-14T08:46:58.025Z,100862.67
2018-03-14T08:49:24.226Z,100864.97
2018-03-14T08:51:50.441Z,100858.73
2018-03-14T08:54:16.621Z,100859.73
2018-03-14T08:56:42.919Z,100852.66
2018-03-14T08:59:09.114Z,100854.16
2018-03-14T09:01:35.258Z,100856.41
2018-03-14T09:04:01.429Z,100858.36
2018-03-14T09:06:27.721Z,100855.10
2018-03-14T09:08:53.878Z,100856.40
2018-03-14T09:11:20.039Z,100858.59
2018-03-14T09:13:46.214Z,100863.08
2018-03-14T09:16:12.447Z,100860.87
2018-03-14T09:18:38.889Z,100852.45
2018-03-14T09:21:05.222Z,100845.11
2018-03-14T09:23:31.411Z,100848.70
2018-03-14T09:25:57.641Z,100835.68
2018-03-14T09:28:24.078Z,100840.36
2018-03-14T09:30:50.258Z,100829.85
2018-03-14T09:33:16.424Z,100828.09
2018-03-14T09:35:42.685Z,100821.49
2018-03-14T09:38:08.815Z,100819.76
2018-03-14T09:40:35.002Z,100822.62
2018-03-14T09:43:01.198Z,100819.25
2018-03-14T09:45:27.334Z,100807.91
2018-03-14T09:47:53.530Z,100797.48
2018-03-14T09:50:19.692Z,100798.68
2018-03-14T09:52:45.850Z,100787.76
2018-03-14T09:55:12.020Z,100778.53
2018-03-14T09:57:38.247Z,100774.34
2018-03-14T10:00:04.430Z,100770.03
2018-03-14T10:02:30.570Z,100769.29
2018-03-14T10:04:56.742Z,100764.20
2018-03-14T10:07:22.973Z,100763.35
2018-03-14T10:09:49.097Z,100755.49
2018-03-14T10:12:15.635Z,100751.23
2018-03-14T10:14:41.785Z,100746.90
2018-03-14T10:17:07.981Z,100745.89
2018-03-14T10:19:34.176Z,100743.48
2018-03-14T10:22:00.328Z,100740.68
2018-03-14T10:24:26.532Z,100743.70
2018-03-14T10:26:52.822Z,100737.15
2018-03-14T10:29:19.008Z,100725.60
2018-03-14T10:31:45.195Z,100730.98
2018-03-14T10:34:11.410Z,100722.22
2018-03-14T10:36:38.776Z,100714.69
2018-03-14T10:39:05.245Z,100707.47
2018-03-14T10:41:31.443Z,100707.04
2018-03-14T10:43:59.102Z,100707.55
2018-03-14T10:46:25.323Z,100706.42
2018-03-14T10:48:51.540Z,100694.57
2018-03-14T10:51:17.663Z,100693.33
2018-03-14T10:53:45.421Z,100692.00
2018-03-14T10:56:11.650Z,100691.06
2018-03-14T10:58:37.882Z,100686.75
2018-03-14T11:01:10.055Z,100675.68
2018-03-14T11:03:40.161Z,100672.18
2018-03-14T11:06:06.376Z,100674.54
2018-03-14T11:08:32.592Z,100664.47
2018-03-14T11:10:58.799Z,100653.83
2018-03-14T11:13:24.929Z,100650.59
2018-03-14T11:15:51.086Z,100648.77
2018-03-14T11:18:17.834Z,100647.84
2018-03-14T11:20:45.174Z,100641.13
2018-03-14T11:23:11.351Z,100634.45
2018-03-14T11:25:37.548Z,100626.63
2018-03-14T11:28:03.814Z,100622.88
2018-03-14T11:30:29.942Z,100622.25
2018-03-14T11:32:56.224Z,100616.67
2018-03-14T11:35:22.384Z,100609.98
2018-03-14T11:37:49.621Z,100603.61
2018-03-14T11:40:19.847Z,100605.11
2018-03-14T11:42:45.995Z,100600.63
2018-03-14T11:45:12.242Z,100598.17
2018-03-14T11:47:39.203Z,100598.08
2018-03-14T11:50:05.389Z,100588.17
2018-03-14T11:52:31.612Z,100588.20
2018-03-14T11:54:57.806Z,100577.50
2018-03-14T11:57:23.984Z,100567.89
2018-03-14T11:59:50.116Z,100557.14
2018-03-14T12:02:16.285Z,100548.31
2018-03-14T12:04:43.286Z,100545.37
2018-03-14T12:07:09.488Z,100534.73
2018-03-14T12:09:35.645Z,100528.93
2018-03-14T12:12:01.881Z,100534.52
2018-03-14T12:14:28.103Z,100539.93
2018-03-14T12:16:54.340Z,100529.27
2018-03-14T12:19:20.548Z,100539.20
2018-03-14T12:21:46.688Z,100532.22
2018-03-14T12:24:12.885Z,100523.06
2018-03-14T12:26:39.131Z,100509.59
2018-03-14T12:29:05.283Z,100506.72
2018-03-14T12:31:31.476Z,100511.76
2018-03-14T12:33:57.668Z,100499.87
2018-03-14T12:36:23.805Z,100502.53
2018-03-14T12:38:50.044Z,100495.21
2018-03-14T12:41:16.247Z,100501.13
2018-03-14T12:43:42.425Z,100493.81
2018-03-14T12:46:08.622Z,100496.42
2018-03-14T12:48:34.806Z,100482.70
2018-03-14T12:51:01.048Z,100477.25
2018-03-14T12:53:27.209Z,100471.38
2018-03-14T12:55:53.378Z,100474.73
2018-03-14T12:58:19.618Z,100467.03
2018-03-14T13:00:45.759Z,100460.66
2018-03-14T13:03:12.001Z,100456.95
2018-03-14T13:05:38.145Z,100455.09
2018-03-14T13:08:04.348Z,100444.78
2018-03-14T13:10:30.487Z,100442.39
2018-03-14T13:12:56.670Z,100418.56
2018-03-14T13:15:22.896Z,100433.31
2018-03-14T13:17:49.107Z,100426.98
2018-03-14T13:20:15.250Z,100427.23
2018-03-14T13:22:41.419Z,100425.42
2018-03-14T13:25:07.617Z,100423.62
2018-03-14T13:27:33.829Z,100415.48
2018-03-14T13:30:00.021Z,100400.28
2018-03-14T13:32:26.197Z,100403.83
2018-03-14T13:34:52.454Z,100398.36
2018-03-14T13:37:18.627Z,100390.92
2018-03-14T13:39:44.801Z,100389.89
2018-03-14T13:42:10.956Z,100380.23
2018-03-14T13:44:37.173Z,100385.95
2018-03-14T13:47:03.434Z,100378.00
2018-03-14T13:49:29.639Z,100381.88
2018-03-14T13:51:55.782Z,100381.33
2018-03-14T13:54:21.941Z,100380.42
2018-03-14T13:56:48.139Z,100374.47
2018-03-14T13:59:14.413Z,100367.56
2018-03-14T14:01:40.595Z,100368.61
2018-03-14T14:04:06.756Z,100361.64
2018-03-14T14:06:32.953Z,100352.94
2018-03-14T14:08:59.152Z,100350.42
2018-03-14T14:11:25.681Z,100347.10
2018-03-14T14:13:51.907Z,100344.03
2018-03-14T14:16:18.047Z,100346.91
2018-03-14T14:18:44.243Z,100340.53
2018-03-14T14:21:10.427Z,100339.06
2018-03-14T14:23:36.601Z,100337.61
2018-03-14T14:26:02.793Z,100338.64
2018-03-14T14:28:29.019Z,100334.91
2018-03-14T14:30:55.165Z,100337.09
2018-03-14T14:33:21.344Z,100338.73
2018-03-14T14:35:47.529Z,100334.02
2018-03-14T14:38:13.740Z,100331.03
2018-03-14T14:40:39.911Z,100316.95
2018-03-14T14:43:06.697Z,100319.95
2018-03-14T14:45:32.834Z,100316.08
2018-03-14T14:47:59.743Z,100299.91
2018-03-14T14:50:26.100Z,100307.11
2018-03-14T14:52:52.222Z,100291.80
2018-03-14T14:55:18.408Z,100283.69
2018-03-14T14:57:45.595Z,100284.36
2018-03-14T15:00:11.736Z,100286.20
2018-03-14T15:02:37.874Z,100284.69
2018-03-14T15:05:04.136Z,100269.31
2018-03-14T15:07:30.444Z,100267.21
2018-03-14T15:09:56.618Z,100262.61
2018-03-14T15:12:22.813Z,100264.95
2018-03-14T15:14:49.007Z,100262.69
2018-03-14T15:17:15.324Z,100260.87
2018-03-14T15:19:41.553Z,100257.27
2018-03-14T15:22:07.715Z,100259.21
2018-03-14T15:24:33.875Z,100257.56
2018-03-14T15:27:00.029Z,100236.73
2018-03-14T15:29:26.249Z,100238.98
2018-03-14T15:31:52.376Z,100229.31
2018-03-14T15:34:18.558Z,100217.22
2018-03-14T15:36:44.758Z,100205.95
2018-03-14T15:39:10.952Z,100205.27
2018-03-14T15:41:37.108Z,100204.72
2018-03-14T15:44:03.308Z,100202.28
2018-03-14T15:46:29.437Z,100197.17
2018-03-14T15:48:55.680Z,100188.26
2018-03-14T15:51:21.877Z,100176.75
2018-03-14T15:53:48.081Z,100175.83
2018-03-14T15:56:14.282Z,100169.49
2018-03-14T15:58:40.488Z,100165.00
2018-03-14T16:01:06.664Z,100167.78
2018-03-14T16:03:32.865Z,100152.97
2018-03-14T16:05:58.998Z,100150.57
2018-03-14T16:08:25.180Z,100143.88
2018-03-14T16:10:51.400Z,100149.54
2018-03-14T16:13:17.545Z,100143.73
2018-03-14T16:15:43.699Z,100142.47
2018-03-14T16:18:09.930Z,100139.13
2018-03-14T16:20:36.101Z,100143.06
2018-03-14T16:23:02.307Z,100127.48
2018-03-14T16:25:28.505Z,100121.83
2018-03-14T16:27:54.642Z,100117.20
2018-03-14T16:30:20.860Z,100112.03
2018-03-14T16:32:47.024Z,100108.41
2018-03-14T16:35:13.333Z,100102.06
2018-03-14T16:37:39.535Z,100103.38
2018-03-14T16:40:05.754Z,100088.56
2018-03-14T16:42:31.896Z,100082.17
2018-03-14T16:44:58.049Z,100078.48
2018-03-14T16:47:24.248Z,100081.99
2018-03-14T16:49:50.720Z,100076.36
2018-03-14T16:52:16.875Z,100062.87
2018-03-14T16:54:43.054Z,100062.60
2018-03-14T16:57:09.226Z,100054.44
2018-03-14T16:59:35.678Z,100047.66
2018-03-14T17:02:01.879Z,100043.32
2018-03-14T17:04:28.057Z,100036.49
2018-03-14T17:06:54.222Z,100040.20
2018-03-14T17:09:20.429Z,100034.27
2018-03-14T17:11:46.623Z,100030.09
2018-03-14T17:14:12.765Z,100023.25
2018-03-14T17:16:38.939Z,100018.57
2018-03-14T17:19:05.168Z,100012.49
2018-03-14T17:21:31.314Z,100029.33
2018-03-14T17:23:57.496Z,100028.70
2018-03-14T17:26:23.620Z,100030.70
2018-03-14T17:28:49.899Z,100024.72
2018-03-14T17:31:16.061Z,100032.80
2018-03-14T17:33:42.215Z,100024.60
2018-03-14T17:36:08.363Z,100027.43
2018-03-14T17:38:34.683Z,100023.19
2018-03-14T17:41:00.782Z,100018.86
2018-03-14T17:43:26.986Z,100013.31
2018-03-14T17:45:53.123Z,100018.34
2018-03-14T17:48:19.764Z,100018.97
2018-03-14T17:50:45.993Z,100020.49
2018-03-14T17:53:12.149Z,100017.03
2018-03-14T17:55:38.348Z,100009.28
2018-03-14T17:58:04.542Z,100013.73
2018-03-14T18:00:30.778Z,100009.02
2018-03-14T18:02:56.938Z,100005.63
2018-03-14T18:05:23.093Z,100004.39
2018-03-14T18:07:49.293Z,100000.47
2018-03-14T18:10:15.576Z,100000.22
2018-03-14T18:12:41.776Z,99996.55
2018-03-14T18:15:07.967Z,100001.95
2018-03-14T18:17:34.167Z,99998.05
2018-03-14T18:20:00.411Z,99988.07
2018-03-14T18:22:26.601Z,99981.46
2018-03-14T18:24:52.784Z,99981.05
2018-03-14T18:27:18.950Z,99974.64
2018-03-14T18:29:45.190Z,99973.36
2018-03-14T18:32:11.349Z,99969.95
2018-03-14T18:34:37.520Z,99970.42
2018-03-14T18:37:03.758Z,99965.63
2018-03-14T18:39:29.980Z,99964.94
2018-03-14T18:41:56.148Z,99962.67
2018-03-14T18:44:22.273Z,99967.55
2018-03-14T18:46:48.609Z,99957.08
2018-03-14T18:49:14.866Z,99952.84
2018-03-14T18:51:41.077Z,99951.15
2018-03-14T18:54:07.285Z,99949.93
2018-03-14T18:56:33.479Z,99944.23
2018-03-14T18:58:59.741Z,99946.45
2018-03-14T19:01:25.964Z,99936.52
2018-03-14T19:03:52.161Z,99936.15
2018-03-14T19:06:18.312Z,99933.15
2018-03-14T19:08:44.571Z,99934.43
2018-03-14T19:11:10.772Z,99928.85
2018-03-14T19:13:36.990Z,99929.78
2018-03-14T19:16:03.263Z,99937.77
2018-03-14T19:18:29.452Z,99938.30
2018-03-14T19:20:55.620Z,99933.57
2018-03-14T19:23:21.791Z,99930.98
2018-03-14T19:25:48.013Z,99932.78
2018-03-14T19:28:14.184Z,99931.95
2018-03-14T19:30:40.375Z,99931.94
2018-03-14T19:33:06.612Z,99934.64
2018-03-14T19:35:32.760Z,99929.86
2018-03-14T19:37:58.907Z,99933.91
2018-03-14T19:40:25.156Z,99935.31
2018-03-14T19:42:51.259Z,99928.27
2018-03-14T19:45:17.399Z,99924.78
2018-03-14T19:47:43.644Z,99909.44
2018-03-14T19:50:09.984Z,99908.09
2018-03-14T19:52:36.154Z,99903.41
2018-03-14T19:55:02.390Z,99890.19
2018-03-14T19:57:28.523Z,99888.01
2018-03-14T19:59:54.765Z,99889.83
2018-03-14T20:02:21.001Z,99886.41
2018-03-14T20:04:47.258Z,99870.16
2018-03-14T20:07:13.365Z,99875.42
2018-03-14T20:09:39.739Z,99863.72
2018-03-14T20:12:05.920Z,99863.20
2018-03-14T20:14:32.095Z,99862.02
2018-03-14T20:16:58.225Z,99859.43
2018-03-14T20:19:25.382Z,99857.23
2018-03-14T20:21:51.512Z,99855.11
2018-03-14T20:24:17.632Z,99851.64
2018-03-14T20:26:43.790Z,99842.45
2018-03-14T20:29:09.992Z,99841.94
2018-03-14T20:31:36.099Z,99831.86
2018-03-14T20:34:02.289Z,99837.59
2018-03-14T20:36:28.613Z,99831.98
2018-03-14T20:38:54.917Z,99819.78
2018-03-14T20:41:21.152Z,99808.48
2018-03-14T20:43:47.271Z,99807.14
2018-03-14T20:46:13.583Z,99806.26
2018-03-14T20:48:39.760Z,99805.84
2018-03-14T20:51:05.933Z,99797.95
2018-03-14T20:53:32.122Z,99795.39
2018-03-14T20:55:58.279Z,99793.19
2018-03-14T20:58:24.417Z,99782.73
2018-03-14T21:00:50.599Z,99776.25
2018-03-14T21:03:16.712Z,99765.36
2018-03-14T21:05:42.833Z,99761.80
2018-03-14T21:08:09.013Z,99752.65
2018-03-14T21:10:35.204Z,99746.17
2018-03-14T21:13:01.311Z,99742.75
2018-03-14T21:15:27.473Z,99739.69
2018-03-14T21:17:53.651Z,99738.41
2018-03-14T21:20:19.819Z,99733.97
2018-03-14T21:22:45.973Z,99733.53
2018-03-14T21:25:12.059Z,99730.08
2018-03-14T21:27:38.173Z,99724.41
2018-03-14T21:30:04.374Z,99720.13
2018-03-14T21:32:30.492Z,99721.88
2018-03-14T21:34:56.585Z,99715.81
2018-03-14T21:37:22.716Z,99705.74
2018-03-14T21:39:48.869Z,99706.64
2018-03-14T21:42:14.997Z,99695.73
2018-03-14T21:44:41.135Z,99699.28
2018-03-14T21:47:07.285Z,99693.21
2018-03-14T21:49:33.438Z,99688.28
2018-03-14T21:51:59.586Z,99686.06
2018-03-14T21:54:25.733Z,99680.37
2018-03-14T21:56:51.849Z,99677.81
2018-03-14T21:59:17.970Z,99664.76
2018-03-14T22:01:44.114Z,99659.52
2018-03-14T22:04:10.195Z,99656.06
2018-03-14T22:06:36.332Z,99655.66
2018-03-14T22:09:02.475Z,99648.30
2018-03-14T22:11:28.744Z,99638.23
2018-03-14T22:13:54.821Z,99648.20
2018-03-14T22:16:20.929Z,99633.41
2018-03-14T22:18:47.100Z,99622.84
2018-03-14T22:21:13.316Z,99630.20
2018-03-14T22:23:39.428Z,99618.47
2018-03-14T22:26:05.557Z,99617.70
2018-03-14T22:28:31.703Z,99610.62
2018-03-14T22:30:57.849Z,99625.59
2018-03-14T22:33:23.935Z,99615.91
2018-03-14T22:35:50.053Z,99613.81
2018-03-14T22:38:16.187Z,99613.02
2018-03-14T22:40:42.318Z,99606.11
2018-03-14T22:43:08.407Z,99595.25
2018-03-14T22:45:34.530Z,99600.11
2018-03-14T22:48:00.709Z,99594.85
2018-03-14T22:50:26.882Z,99587.94
2018-03-14T22:52:53.021Z,99575.71
2018-03-14T22:55:19.115Z,99583.13
2018-03-14T22:57:45.218Z,99582.81
2018-03-14T23:00:11.373Z,99576.31
2018-03-14T23:02:37.475Z,99568.06
2018-03-14T23:05:03.635Z,99569.34
2018-03-14T23:07:29.765Z,99558.05
2018-03-14T23:09:55.892Z,99554.97
2018-03-14T23:12:21.994Z,99552.44
2018-03-14T23:14:48.108Z,99546.30
2018-03-14T23:17:14.252Z,99545.95
2018-03-14T23:19:40.415Z,99537.63
2018-03-14T23:22:06.590Z,99540.34
2018-03-14T23:24:32.715Z,99517.70
2018-03-14T23:26:58.820Z,99516.91
2018-03-14T23:29:24.917Z,99511.28
2018-03-14T23:31:51.135Z,99506.55
2018-03-14T23:34:17.227Z,99503.09
2018-03-14T23:36:43.324Z,99499.68
2018-03-14T23:39:09.476Z,99495.38
2018-03-14T23:41:35.652Z,99487.56
2018-03-14T23:44:01.759Z,99478.91
2018-03-14T23:46:27.884Z,99478.42
2018-03-14T23:48:54.046Z,99472.79
2018-03-14T23:51:20.210Z,99474.98
2018-03-14T23:53:46.318Z,99470.22
2018-03-14T23:56:12.402Z,99461.51
2018-03-14T23:58:38.558Z,99458.03
